Time;durP1;ratioP1;P1;durP2;ratioP2;P2;SDS_P1;SDS_P2;PMS_P1;PMS_P2;Temp;Humidity;BMP_temperature;BMP_pressure;BME280_temperature;BME280_humidity;BME280_pressure;Samples;Min_cycle;Max_cycle;Signal;HPM_P1;HPM_P2
2021/01/02 00:00:08;;;;;;;25.33;19.00;;;1.20;92.50;;;;;;5097446;28;20469;-86
2021/01/02 00:02:53;;;;;;;23.93;17.23;;;1.20;92.70;;;;;;5103141;28;20457;-85
2021/01/02 00:05:27;;;;;;;22.53;17.20;;;1.20;92.10;;;;;;5097547;28;20451;-86
2021/01/02 00:08:22;;;;;;;18.63;16.50;;;1.20;91.60;;;;;;5096085;28;20446;-83
2021/01/02 00:11:21;;;;;;;20.00;15.80;;;1.20;91.60;;;;;;5094301;28;20439;-87
2021/01/02 00:14:07;;;;;;;21.10;15.87;;;1.20;91.60;;;;;;5070806;28;20451;-84
2021/01/02 00:17:02;;;;;;;18.13;15.30;;;1.10;91.80;;;;;;5089770;28;20477;-86
2021/01/02 00:19:49;;;;;;;22.93;17.70;;;1.10;92.00;;;;;;5094951;28;20494;-88
2021/01/02 00:22:37;;;;;;;24.07;15.97;;;1.10;91.60;;;;;;5097732;28;20471;-85
2021/01/02 00:25:12;;;;;;;20.90;15.87;;;1.10;91.80;;;;;;5099952;28;20446;-85
2021/01/02 00:28:07;;;;;;;20.80;16.33;;;1.00;91.80;;;;;;5088507;28;20451;-85
2021/01/02 00:31:03;;;;;;;20.30;15.80;;;1.00;91.20;;;;;;5089568;28;20453;-86
2021/01/02 00:33:57;;;;;;;18.63;14.67;;;0.90;91.20;;;;;;5089087;28;20476;-86
2021/01/02 00:36:34;;;;;;;18.43;16.20;;;0.90;91.30;;;;;;5093345;28;20461;-82
2021/01/02 00:39:01;;;;;;;17.90;15.13;;;0.80;91.20;;;;;;5095652;28;20471;-85
2021/01/02 00:41:31;;;;;;;20.40;14.80;;;0.80;91.60;;;;;;5095471;28;20446;-85
2021/01/02 00:44:12;;;;;;;19.37;16.00;;;0.70;91.80;;;;;;5103967;28;20458;-84
2021/01/02 00:46:40;;;;;;;20.90;16.43;;;0.60;92.30;;;;;;5092006;28;20434;-84
2021/01/02 00:49:10;;;;;;;23.20;17.40;;;0.50;92.90;;;;;;5092985;28;20516;-86
2021/01/02 00:51:42;;;;;;;20.77;16.07;;;0.40;94.60;;;;;;5090032;28;20442;-84
2021/01/02 00:54:26;;;;;;;19.70;16.03;;;0.30;95.50;;;;;;5094220;28;20445;-87
2021/01/02 00:57:02;;;;;;;21.27;16.37;;;0.30;96.50;;;;;;5087255;28;20475;-86
2021/01/02 00:59:59;;;;;;;19.37;16.40;;;0.30;98.50;;;;;;5089533;28;20450;-86
2021/01/02 01:03:01;;;;;;;28.50;19.43;;;0.30;99.90;;;;;;5090985;28;20522;-85
2021/01/02 01:05:32;;;;;;;23.40;19.07;;;0.30;99.90;;;;;;5076592;28;20464;-85
2021/01/02 01:08:01;;;;;;;27.50;19.67;;;0.30;99.90;;;;;;5097546;28;20450;-87
2021/01/02 01:10:30;;;;;;;28.07;19.03;;;0.40;99.90;;;;;;5091648;28;20432;-86
2021/01/02 01:13:01;;;;;;;27.33;19.83;;;0.30;99.90;;;;;;5092198;28;20447;-85
2021/01/02 01:15:30;;;;;;;24.77;18.80;;;0.40;99.90;;;;;;5093582;28;20461;-84
2021/01/02 01:18:20;;;;;;;25.87;18.63;;;0.40;99.90;;;;;;5089413;28;20477;-85
2021/01/02 01:20:52;;;;;;;25.10;19.13;;;0.40;99.90;;;;;;5091824;28;20571;-86
2021/01/02 01:23:48;;;;;;;24.37;18.50;;;0.40;99.90;;;;;;5097349;28;20465;-87
2021/01/02 01:26:44;;;;;;;26.30;19.60;;;0.30;99.90;;;;;;5090264;28;20543;-87
2021/01/02 01:29:25;;;;;;;26.93;18.60;;;0.30;99.90;;;;;;5054199;28;20464;-84
2021/01/02 01:32:01;;;;;;;24.53;18.20;;;0.30;99.90;;;;;;5090785;28;20449;-86
2021/01/02 01:34:33;;;;;;;25.10;18.97;;;0.40;99.90;;;;;;5094558;28;20527;-85
2021/01/02 01:37:05;;;;;;;24.73;19.43;;;0.40;99.90;;;;;;5092644;28;20472;-85
2021/01/02 01:39:35;;;;;;;25.10;19.20;;;0.40;99.90;;;;;;5090649;28;20442;-87
2021/01/02 01:42:06;;;;;;;24.67;17.80;;;0.40;99.60;;;;;;5082464;28;20458;-85
2021/01/02 01:44:59;;;;;;;22.77;18.83;;;0.40;99.50;;;;;;5092594;28;20438;-84
2021/01/02 01:47:37;;;;;;;24.73;19.70;;;0.30;99.90;;;;;;5092217;28;20542;-85
2021/01/02 01:50:24;;;;;;;23.30;18.67;;;0.30;99.90;;;;;;5093152;28;20475;-85
2021/01/02 01:53:39;;;;;;;23.97;17.90;;;0.30;99.90;;;;;;5097220;28;20530;-86
2021/01/02 01:56:18;;;;;;;25.47;18.47;;;0.20;99.90;;;;;;5088926;28;20494;-86
2021/01/02 01:59:24;;;;;;;25.77;18.80;;;0.20;99.90;;;;;;5094704;28;20430;-84
2021/01/02 02:01:57;;;;;;;27.63;19.27;;;0.30;99.90;;;;;;5076725;28;20475;-85
2021/01/02 02:05:00;;;;;;;28.70;19.90;;;0.30;99.90;;;;;;5094330;28;20456;-85
2021/01/02 02:07:46;;;;;;;26.07;18.93;;;0.30;99.90;;;;;;5094288;28;20465;-85
2021/01/02 02:10:28;;;;;;;26.90;19.90;;;0.30;99.90;;;;;;5094005;28;20423;-85
2021/01/02 02:12:57;;;;;;;24.97;19.30;;;0.30;99.90;;;;;;5093625;28;20446;-86
2021/01/02 02:15:29;;;;;;;27.73;19.60;;;0.20;99.80;;;;;;5094986;28;20450;-86
2021/01/02 02:18:06;;;;;;;25.83;19.07;;;0.40;99.90;;;;;;5099221;28;20460;-87
2021/01/02 02:20:40;;;;;;;27.00;19.10;;;0.30;99.90;;;;;;5110008;28;20438;-87
2021/01/02 02:23:09;;;;;;;26.87;19.77;;;0.30;99.90;;;;;;5097861;28;20470;-87
2021/01/02 02:25:58;;;;;;;30.67;21.30;;;0.20;99.90;;;;;;5077970;28;20488;-85
2021/01/02 02:28:56;;;;;;;30.77;21.87;;;0.20;99.90;;;;;;5093130;28;20971;-85
2021/01/02 02:31:31;;;;;;;30.00;21.10;;;0.20;99.90;;;;;;5085695;28;20672;-84
2021/01/02 02:34:01;;;;;;;31.53;21.10;;;0.30;99.90;;;;;;5084849;28;20495;-85
2021/01/02 02:36:30;;;;;;;32.90;22.40;;;0.20;99.90;;;;;;5095551;28;20523;-87
2021/01/02 02:39:00;;;;;;;32.23;21.07;;;0.30;99.90;;;;;;5099006;28;20465;-84
2021/01/02 02:41:31;;;;;;;35.53;22.10;;;0.30;99.90;;;;;;5094051;28;20440;-85
2021/01/02 02:44:03;;;;;;;29.60;21.10;;;0.30;99.90;;;;;;5093690;28;20553;-85
2021/01/02 02:46:37;;;;;;;36.03;21.80;;;0.40;99.90;;;;;;5092307;28;20455;-86
2021/01/02 02:49:11;;;;;;;35.67;22.53;;;0.40;99.90;;;;;;5093275;28;20455;-85
2021/01/02 02:51:47;;;;;;;29.60;22.57;;;0.40;99.90;;;;;;5091714;28;20468;-85
2021/01/02 02:54:22;;;;;;;32.53;21.67;;;0.40;99.90;;;;;;5090179;28;20441;-86
2021/01/02 02:56:53;;;;;;;30.83;20.40;;;0.40;99.90;;;;;;5088702;28;20467;-86
2021/01/02 02:59:22;;;;;;;27.70;19.60;;;0.40;99.90;;;;;;5096399;28;20451;-85
2021/01/02 03:01:48;;;;;;;29.10;21.80;;;0.40;99.90;;;;;;5086248;28;20451;-86
2021/01/02 03:04:18;;;;;;;29.80;21.30;;;0.40;99.90;;;;;;5097261;28;20462;-86
2021/01/02 03:06:48;;;;;;;28.63;19.30;;;0.40;99.90;;;;;;5086384;28;20447;-86
2021/01/02 03:09:19;;;;;;;30.77;20.57;;;0.50;99.90;;;;;;5088336;28;20463;-86
2021/01/02 03:11:47;;;;;;;25.90;17.60;;;0.40;98.90;;;;;;5094527;28;20468;-85
2021/01/02 03:14:16;;;;;;;30.00;20.03;;;0.50;99.90;;;;;;5089987;28;20454;-86
2021/01/02 03:16:44;;;;;;;24.73;18.90;;;0.50;99.00;;;;;;5096679;28;20465;-85
2021/01/02 03:19:11;;;;;;;25.57;19.03;;;0.50;98.00;;;;;;5079515;28;20447;-86
2021/01/02 03:21:41;;;;;;;26.73;20.10;;;0.50;98.30;;;;;;5095257;28;20572;-86
2021/01/02 03:24:12;;;;;;;30.33;19.03;;;0.40;99.70;;;;;;5095885;28;20450;-85
2021/01/02 03:26:40;;;;;;;24.90;18.90;;;0.40;99.90;;;;;;5097957;28;20455;-85
2021/01/02 03:29:10;;;;;;;28.20;19.80;;;0.50;99.90;;;;;;5090958;28;20455;-85
2021/01/02 03:31:41;;;;;;;23.47;20.03;;;0.60;99.10;;;;;;5086449;28;20488;-86
2021/01/02 03:34:10;;;;;;;27.17;18.93;;;0.40;97.60;;;;;;5090363;28;20505;-85
2021/01/02 03:36:40;;;;;;;26.13;19.97;;;0.40;99.50;;;;;;5091945;28;20521;-84
2021/01/02 03:39:08;;;;;;;27.30;19.80;;;0.30;99.90;;;;;;5087116;28;20478;-85
2021/01/02 03:44:16;;;;;;;33.40;21.03;;;0.30;99.90;;;;;;5091237;28;20462;-86
2021/01/02 03:46:43;;;;;;;32.03;21.60;;;0.30;99.90;;;;;;5095095;28;20473;-84
2021/01/02 03:49:11;;;;;;;33.43;21.40;;;0.20;99.90;;;;;;5094807;28;20447;-84
2021/01/02 03:51:38;;;;;;;38.17;22.37;;;0.10;99.90;;;;;;5092298;28;20503;-86
2021/01/02 03:54:09;;;;;;;31.47;20.57;;;0.10;99.90;;;;;;5097263;28;20444;-86
2021/01/02 03:56:36;;;;;;;32.00;21.80;;;0.20;99.90;;;;;;5089309;28;20484;-85
2021/01/02 03:59:04;;;;;;;30.77;22.07;;;0.20;99.90;;;;;;5088816;28;20449;-84
2021/01/02 04:01:36;;;;;;;37.87;22.20;;;0.20;99.90;;;;;;5098823;28;20435;-84
2021/01/02 04:04:03;;;;;;;30.97;22.00;;;0.20;99.90;;;;;;5092638;28;20439;-86
2021/01/02 04:06:30;;;;;;;50.20;22.30;;;0.20;99.90;;;;;;5089410;28;20445;-84
2021/01/02 04:08:59;;;;;;;58.70;23.90;;;0.20;99.90;;;;;;5095354;28;20452;-85
2021/01/02 04:11:29;;;;;;;45.77;23.53;;;0.20;99.90;;;;;;5084853;28;20443;-85
2021/01/02 04:13:59;;;;;;;48.97;24.90;;;0.10;99.90;;;;;;5094758;28;20430;-84
2021/01/02 04:16:36;;;;;;;67.73;25.27;;;0.20;99.90;;;;;;5109226;28;20480;-85
2021/01/02 04:19:04;;;;;;;58.90;26.43;;;0.10;99.90;;;;;;5097833;28;20420;-86
2021/01/02 04:21:31;;;;;;;68.67;23.17;;;0.20;99.90;;;;;;5092101;28;20458;-85
2021/01/02 04:24:01;;;;;;;45.90;23.03;;;0.20;99.90;;;;;;5091518;28;20461;-86
2021/01/02 04:26:29;;;;;;;64.67;26.30;;;0.30;99.90;;;;;;5091150;28;20448;-86
2021/01/02 04:28:57;;;;;;;51.63;25.00;;;0.30;99.90;;;;;;5092839;28;20533;-85
2021/01/02 04:31:33;;;;;;;43.33;25.57;;;0.30;99.90;;;;;;5091656;28;20448;-86
2021/01/02 04:34:00;;;;;;;37.20;23.87;;;0.40;99.90;;;;;;5093274;28;20479;-84
2021/01/02 04:36:29;;;;;;;39.77;23.90;;;0.40;99.90;;;;;;5092121;28;20471;-86
2021/01/02 04:38:58;;;;;;;34.90;24.07;;;0.40;99.90;;;;;;5092960;28;20512;-85
2021/01/02 04:41:28;;;;;;;39.77;23.90;;;0.40;99.90;;;;;;5095667;28;20465;-86
2021/01/02 04:43:57;;;;;;;35.97;23.10;;;0.40;99.90;;;;;;5091942;28;20442;-85
2021/01/02 04:46:28;;;;;;;37.63;22.67;;;0.30;99.90;;;;;;5092072;28;20439;-86
2021/01/02 04:49:02;;;;;;;32.60;21.77;;;0.40;99.90;;;;;;5095214;28;20532;-83
2021/01/02 04:51:31;;;;;;;33.27;21.67;;;0.50;99.90;;;;;;5089926;28;20508;-86
2021/01/02 04:54:01;;;;;;;32.60;21.00;;;0.50;99.90;;;;;;5098417;28;20450;-85
2021/01/02 04:56:32;;;;;;;39.70;23.23;;;0.60;99.90;;;;;;5091676;28;20475;-86
2021/01/02 04:59:08;;;;;;;31.30;21.57;;;0.40;99.90;;;;;;5090187;28;20450;-85
2021/01/02 05:01:38;;;;;;;32.43;21.90;;;0.40;99.90;;;;;;5096357;28;20464;-85
2021/01/02 05:04:05;;;;;;;29.60;21.70;;;0.40;99.90;;;;;;5096940;28;20436;-85
2021/01/02 05:06:32;;;;;;;31.70;21.33;;;0.50;99.90;;;;;;5097642;28;20458;-86
2021/01/02 05:09:00;;;;;;;32.10;21.00;;;0.50;99.90;;;;;;5089570;28;20536;-85
2021/01/02 05:11:39;;;;;;;32.83;21.97;;;0.60;99.90;;;;;;5093166;28;20437;-86
2021/01/02 05:14:10;;;;;;;29.10;20.90;;;0.60;99.90;;;;;;5092395;28;20458;-85
2021/01/02 05:16:40;;;;;;;37.87;22.40;;;0.60;99.90;;;;;;5083362;28;20503;-85
2021/01/02 05:19:09;;;;;;;40.20;21.57;;;0.60;99.90;;;;;;5084419;28;20469;-87
2021/01/02 05:21:50;;;;;;;38.10;23.13;;;0.50;99.90;;;;;;5099161;28;20470;-85
2021/01/02 05:24:20;;;;;;;35.27;22.77;;;0.50;99.90;;;;;;5095192;28;20452;-86
2021/01/02 05:26:57;;;;;;;32.67;21.47;;;0.60;99.90;;;;;;5094122;28;20432;-87
2021/01/02 05:29:25;;;;;;;32.67;21.77;;;0.70;99.90;;;;;;5089277;28;20458;-87
2021/01/02 05:32:06;;;;;;;33.77;22.60;;;0.70;99.90;;;;;;5095938;28;20476;-87
2021/01/02 05:34:34;;;;;;;41.53;24.30;;;0.70;99.90;;;;;;5090123;28;20481;-86
2021/01/02 05:37:04;;;;;;;33.83;21.00;;;0.60;98.90;;;;;;5095874;28;20495;-85
2021/01/02 05:39:37;;;;;;;32.27;21.60;;;0.60;99.90;;;;;;5095353;28;20457;-86
2021/01/02 05:42:06;;;;;;;33.97;21.37;;;0.70;99.90;;;;;;5100422;28;20433;-84
2021/01/02 05:44:35;;;;;;;32.97;21.10;;;0.80;99.90;;;;;;5095124;28;20560;-84
2021/01/02 05:47:04;;;;;;;35.57;21.17;;;0.90;99.90;;;;;;5097145;28;20466;-86
2021/01/02 05:49:39;;;;;;;32.63;21.93;;;0.90;97.70;;;;;;5099115;28;20557;-84
2021/01/02 05:52:19;;;;;;;34.20;22.17;;;0.70;99.90;;;;;;5104908;28;20470;-85
2021/01/02 05:54:50;;;;;;;35.50;21.80;;;0.80;99.90;;;;;;5095203;28;20454;-86
2021/01/02 05:57:28;;;;;;;36.27;23.47;;;0.70;99.90;;;;;;5098772;28;20483;-85
2021/01/02 05:59:58;;;;;;;36.30;21.60;;;0.70;99.90;;;;;;5085343;28;20456;-85
2021/01/02 06:02:27;;;;;;;39.40;23.07;;;0.70;99.90;;;;;;5094759;28;20469;-84
2021/01/02 06:04:58;;;;;;;38.70;22.47;;;0.70;99.90;;;;;;5093051;28;20462;-82
2021/01/02 06:07:27;;;;;;;30.80;19.77;;;0.70;99.90;;;;;;5093225;28;20443;-85
2021/01/02 06:09:56;;;;;;;35.30;20.70;;;0.80;99.90;;;;;;5091341;28;20561;-85
2021/01/02 06:12:32;;;;;;;37.80;24.40;;;0.60;99.90;;;;;;5091560;28;20450;-85
2021/01/02 06:15:02;;;;;;;38.33;23.23;;;0.60;99.90;;;;;;5094719;28;20451;-86
2021/01/02 06:17:32;;;;;;;52.40;25.40;;;0.60;99.90;;;;;;5093263;28;20471;-84
2021/01/02 06:20:02;;;;;;;40.13;24.43;;;0.70;99.90;;;;;;5092944;28;20462;-86
2021/01/02 06:22:30;;;;;;;36.43;22.10;;;0.60;99.90;;;;;;5093554;28;20944;-84
2021/01/02 06:24:57;;;;;;;37.83;21.43;;;0.70;99.90;;;;;;5090695;28;20505;-86
2021/01/02 06:27:29;;;;;;;34.73;23.60;;;0.80;99.90;;;;;;5090812;28;20470;-86
2021/01/02 06:29:59;;;;;;;29.07;21.20;;;0.90;99.90;;;;;;5077724;28;20541;-85
2021/01/02 06:32:31;;;;;;;34.80;21.67;;;0.90;99.90;;;;;;5107551;28;20458;-85
2021/01/02 06:35:19;;;;;;;33.17;21.97;;;1.00;99.90;;;;;;5095407;28;20476;-84
2021/01/02 06:38:05;;;;;;;31.57;21.13;;;0.90;99.90;;;;;;5091311;28;20469;-83
2021/01/02 06:40:38;;;;;;;30.93;20.90;;;0.90;99.30;;;;;;5085064;28;20538;-84
2021/01/02 06:43:07;;;;;;;34.30;20.80;;;1.00;99.20;;;;;;5090449;28;20467;-84
2021/01/02 06:45:59;;;;;;;32.27;21.30;;;0.90;99.90;;;;;;5096827;28;20447;-85
2021/01/02 06:48:42;;;;;;;30.23;21.13;;;0.90;99.90;;;;;;5095406;28;20439;-84
2021/01/02 06:51:29;;;;;;;30.80;20.33;;;0.90;99.90;;;;;;5101907;28;20459;-85
2021/01/02 06:53:55;;;;;;;33.30;21.40;;;0.90;99.90;;;;;;5098236;28;20443;-85
2021/01/02 06:56:36;;;;;;;29.13;20.67;;;0.70;99.90;;;;;;5094459;28;20469;-83
2021/01/02 06:59:23;;;;;;;33.13;19.07;;;0.80;99.90;;;;;;5093065;28;20499;-84
2021/01/02 07:01:49;;;;;;;26.03;18.90;;;0.70;99.90;;;;;;5091993;28;20455;-86
2021/01/02 07:04:37;;;;;;;28.00;19.13;;;0.80;99.90;;;;;;5102105;28;20511;-84
2021/01/02 07:07:08;;;;;;;26.67;18.80;;;0.90;99.90;;;;;;5088013;28;20435;-85
2021/01/02 07:09:36;;;;;;;31.13;20.03;;;0.90;99.90;;;;;;5092319;28;20449;-84
2021/01/02 07:12:15;;;;;;;28.43;20.13;;;0.90;99.90;;;;;;5101124;28;20451;-87
2021/01/02 07:14:44;;;;;;;28.33;20.20;;;0.90;99.90;;;;;;5104025;28;20454;-87
2021/01/02 07:17:25;;;;;;;30.40;20.60;;;0.90;99.20;;;;;;5099432;28;20486;-85
2021/01/02 07:19:52;;;;;;;27.37;20.23;;;0.90;99.90;;;;;;5089146;28;20485;-86
2021/01/02 07:22:39;;;;;;;27.07;19.17;;;0.90;97.90;;;;;;5097593;28;20507;-86
2021/01/02 07:25:08;;;;;;;26.93;18.90;;;1.00;98.20;;;;;;5089585;28;20446;-85
2021/01/02 07:27:48;;;;;;;29.53;19.87;;;1.00;98.40;;;;;;5090343;28;20456;-85
2021/01/02 07:30:20;;;;;;;27.93;19.50;;;1.00;97.20;;;;;;5089526;28;20487;-84
2021/01/02 07:32:49;;;;;;;28.83;20.00;;;1.00;97.90;;;;;;5096980;28;20441;-87
2021/01/02 07:35:17;;;;;;;27.13;20.20;;;1.10;96.90;;;;;;5086822;28;20478;-85
2021/01/02 07:37:46;;;;;;;23.40;19.93;;;1.10;96.00;;;;;;5088702;28;20500;-85
2021/01/02 07:40:37;;;;;;;26.30;19.90;;;1.20;95.40;;;;;;5091771;28;20444;-85
2021/01/02 07:43:06;;;;;;;26.80;19.37;;;1.20;95.50;;;;;;5084915;28;20468;-84
2021/01/02 07:45:35;;;;;;;25.57;19.03;;;1.10;95.20;;;;;;5105632;28;20465;-84
2021/01/02 07:48:02;;;;;;;24.60;19.07;;;1.20;95.40;;;;;;5096759;28;20647;-86
2021/01/02 07:50:31;;;;;;;28.43;19.27;;;1.10;93.90;;;;;;5095119;28;20447;-85
2021/01/02 07:53:00;;;;;;;26.60;19.33;;;1.20;95.20;;;;;;5097996;28;20440;-83
2021/01/02 07:55:28;;;;;;;26.30;19.20;;;1.30;94.90;;;;;;5095456;28;20462;-87
2021/01/02 07:57:58;;;;;;;26.73;20.00;;;1.20;93.70;;;;;;5093049;28;20486;-86
2021/01/02 08:00:27;;;;;;;25.23;18.73;;;1.30;94.70;;;;;;5100071;28;20433;-86
2021/01/02 08:03:03;;;;;;;27.67;20.10;;;1.40;94.00;;;;;;5098519;28;20438;-86
2021/01/02 08:05:29;;;;;;;27.57;19.03;;;1.50;93.30;;;;;;5096809;28;20455;-87
2021/01/02 08:07:58;;;;;;;22.93;17.60;;;1.50;92.60;;;;;;5097354;28;20526;-83
2021/01/02 08:10:25;;;;;;;23.20;18.20;;;1.50;92.50;;;;;;5094220;28;20440;-85
2021/01/02 08:12:56;;;;;;;24.53;18.30;;;1.50;92.00;;;;;;5097653;28;20468;-84
2021/01/02 08:15:30;;;;;;;23.27;18.67;;;1.50;91.60;;;;;;5098193;28;20470;-84
2021/01/02 08:18:03;;;;;;;23.67;17.97;;;1.40;92.10;;;;;;5096460;28;20467;-84
2021/01/02 08:20:33;;;;;;;27.20;20.37;;;1.30;92.50;;;;;;5082866;28;20450;-86
2021/01/02 08:23:08;;;;;;;28.03;20.17;;;1.30;92.80;;;;;;5093781;28;20443;-87
2021/01/02 08:25:38;;;;;;;32.00;19.67;;;1.30;94.10;;;;;;5102233;28;20542;-83
2021/01/02 08:28:06;;;;;;;26.77;19.37;;;1.40;94.50;;;;;;5089912;28;20459;-84
2021/01/02 08:30:36;;;;;;;26.77;19.57;;;1.40;93.90;;;;;;5097352;28;20474;-84
2021/01/02 08:33:08;;;;;;;24.27;18.30;;;1.40;93.10;;;;;;5085585;28;20458;-85
2021/01/02 08:35:36;;;;;;;25.53;19.40;;;1.30;92.00;;;;;;5087183;28;20439;-86
2021/01/02 08:38:05;;;;;;;27.90;19.20;;;1.30;93.10;;;;;;5093653;28;20489;-85
2021/01/02 08:40:37;;;;;;;24.87;19.07;;;1.20;93.70;;;;;;5089915;28;20459;-86
2021/01/02 08:43:07;;;;;;;23.70;17.40;;;1.20;93.70;;;;;;5086879;28;20450;-86
2021/01/02 08:45:39;;;;;;;24.50;18.20;;;1.30;93.20;;;;;;5101676;28;20446;-84
2021/01/02 08:48:12;;;;;;;23.97;19.70;;;1.40;93.20;;;;;;5089617;28;20462;-86
2021/01/02 08:53:25;;;;;;;27.03;20.80;;;1.30;92.50;;;;;;5087244;28;20463;-85
2021/01/02 08:55:53;;;;;;;22.80;18.30;;;1.30;93.30;;;;;;5084284;28;20520;-84
2021/01/02 08:58:30;;;;;;;26.10;19.07;;;1.40;93.00;;;;;;5097351;28;20465;-86
2021/01/02 09:00:59;;;;;;;23.93;18.50;;;1.40;93.20;;;;;;5075241;28;20446;-85
2021/01/02 09:03:40;;;;;;;24.80;18.37;;;1.30;93.00;;;;;;5091528;28;20551;-85
2021/01/02 09:06:20;;;;;;;21.93;18.60;;;1.20;93.90;;;;;;5098420;28;20517;-85
2021/01/02 09:09:06;;;;;;;25.13;19.07;;;1.20;94.10;;;;;;5090148;28;20453;-86
2021/01/02 09:11:47;;;;;;;25.27;19.57;;;1.30;93.80;;;;;;5075057;28;20441;-84
2021/01/02 09:14:15;;;;;;;23.83;17.90;;;1.40;93.60;;;;;;5087835;28;20524;-86
2021/01/02 09:16:45;;;;;;;25.53;20.47;;;1.50;93.20;;;;;;5079599;28;20472;-85
2021/01/02 09:19:38;;;;;;;27.67;20.30;;;1.50;92.90;;;;;;5086909;28;20452;-85
2021/01/02 09:22:17;;;;;;;25.23;18.80;;;1.50;91.90;;;;;;5092443;28;20444;-86
2021/01/02 09:24:43;;;;;;;23.50;17.87;;;1.50;91.70;;;;;;5090159;28;20478;-86
2021/01/02 09:27:22;;;;;;;27.40;19.90;;;1.40;91.50;;;;;;5088969;28;20518;-86
2021/01/02 09:29:49;;;;;;;24.10;18.90;;;1.50;92.70;;;;;;5096375;28;20462;-85
2021/01/02 09:35:16;;;;;;;27.27;18.40;;;1.60;91.90;;;;;;5087185;28;20477;-86
2021/01/02 09:37:47;;;;;;;27.33;19.87;;;1.60;91.60;;;;;;5093282;28;20477;-85
2021/01/02 09:40:19;;;;;;;24.53;19.37;;;1.50;91.30;;;;;;5091360;28;20442;-85
2021/01/02 09:42:47;;;;;;;23.70;18.73;;;1.60;91.90;;;;;;5098127;28;20432;-85
2021/01/02 09:45:18;;;;;;;23.60;17.37;;;1.40;91.20;;;;;;5091708;28;20505;-85
2021/01/02 09:47:55;;;;;;;24.40;18.90;;;1.60;92.20;;;;;;5080247;28;20805;-85
2021/01/02 09:50:53;;;;;;;22.03;17.30;;;1.60;91.50;;;;;;5082563;28;20450;-86
2021/01/02 09:53:21;;;;;;;25.90;18.47;;;1.70;91.60;;;;;;5087905;28;20473;-85
2021/01/02 09:55:56;;;;;;;21.90;17.43;;;1.80;90.80;;;;;;5087788;28;20462;-86
2021/01/02 09:58:23;;;;;;;24.50;18.00;;;1.70;90.20;;;;;;5081192;28;20539;-86
2021/01/02 10:00:50;;;;;;;23.50;16.70;;;1.70;89.40;;;;;;5083198;28;20448;-85
2021/01/02 10:03:25;;;;;;;21.40;15.90;;;1.80;89.30;;;;;;5084465;28;21069;-85
2021/01/02 10:05:58;;;;;;;26.27;18.53;;;2.00;89.10;;;;;;5064193;28;20456;-85
2021/01/02 10:08:26;;;;;;;21.60;16.20;;;2.10;86.90;;;;;;5082665;28;20480;-84
2021/01/02 10:10:55;;;;;;;26.13;18.73;;;1.90;87.80;;;;;;5085063;28;21640;-85
2021/01/02 10:13:29;;;;;;;23.63;17.43;;;2.10;88.20;;;;;;5096783;28;20441;-85
2021/01/02 10:15:56;;;;;;;24.57;17.20;;;2.30;85.70;;;;;;5093037;28;20550;-86
2021/01/02 10:18:23;;;;;;;20.17;16.77;;;2.40;83.30;;;;;;5101436;28;20464;-86
2021/01/02 10:20:49;;;;;;;22.83;16.97;;;2.60;83.20;;;;;;5104177;28;20450;-87
2021/01/02 10:23:16;;;;;;;20.00;16.57;;;2.70;81.30;;;;;;5111443;28;20513;-86
2021/01/02 10:25:44;;;;;;;22.17;17.10;;;3.00;79.90;;;;;;5096346;28;20492;-87
2021/01/02 10:28:12;;;;;;;20.40;14.60;;;3.10;79.50;;;;;;5093097;28;21069;-86
2021/01/02 10:30:41;;;;;;;18.80;15.27;;;3.40;78.60;;;;;;5093945;28;20469;-85
2021/01/02 10:33:09;;;;;;;21.63;16.10;;;3.40;76.90;;;;;;5103992;28;20430;-85
2021/01/02 10:35:37;;;;;;;20.77;16.00;;;3.30;76.70;;;;;;5089811;28;20517;-86
2021/01/02 10:38:04;;;;;;;18.63;14.87;;;3.50;77.50;;;;;;5100382;28;20485;-86
2021/01/02 10:40:30;;;;;;;18.23;15.57;;;3.60;75.30;;;;;;5096559;28;20448;-85
2021/01/02 10:42:57;;;;;;;17.67;14.97;;;3.40;75.40;;;;;;5101702;28;20481;-85
2021/01/02 10:45:24;;;;;;;16.57;14.20;;;3.50;75.50;;;;;;5090707;28;20472;-85
2021/01/02 10:47:55;;;;;;;16.93;13.67;;;3.00;74.40;;;;;;5091678;28;20470;-84
2021/01/02 10:50:22;;;;;;;15.80;13.20;;;3.30;75.10;;;;;;5089126;28;20534;-85
2021/01/02 10:52:49;;;;;;;15.63;13.60;;;3.10;74.80;;;;;;5091232;28;20543;-86
2021/01/02 10:55:16;;;;;;;17.90;13.40;;;3.20;75.30;;;;;;5095456;28;20515;-86
2021/01/02 10:57:44;;;;;;;19.30;13.90;;;3.10;75.20;;;;;;5111667;28;20493;-85
2021/01/02 11:00:12;;;;;;;20.33;13.97;;;3.10;74.90;;;;;;5093723;28;20549;-84
2021/01/02 11:02:39;;;;;;;16.20;14.10;;;3.00;74.50;;;;;;5088337;28;20457;-84
2021/01/02 11:05:09;;;;;;;16.23;13.13;;;3.50;74.60;;;;;;5086172;28;20535;-85
2021/01/02 11:07:36;;;;;;;17.40;13.37;;;3.40;74.30;;;;;;5086134;28;20449;-85
2021/01/02 11:10:05;;;;;;;20.80;14.03;;;3.10;74.40;;;;;;5085577;28;20448;-84
2021/01/02 11:12:32;;;;;;;17.63;13.00;;;3.00;74.00;;;;;;5086805;28;20486;-83
2021/01/02 11:14:58;;;;;;;18.10;13.67;;;3.10;74.60;;;;;;5088301;28;20458;-85
2021/01/02 11:17:25;;;;;;;15.60;13.37;;;2.90;74.40;;;;;;5075403;28;20546;-79
2021/01/02 11:19:52;;;;;;;17.27;13.40;;;3.00;74.70;;;;;;5073631;28;20783;-78
2021/01/02 11:22:19;;;;;;;17.50;13.50;;;2.80;74.70;;;;;;5068012;28;21304;-78
2021/01/02 11:24:46;;;;;;;18.20;13.43;;;2.80;74.80;;;;;;5071045;28;20933;-79
2021/01/02 11:27:18;;;;;;;15.73;13.63;;;2.90;74.20;;;;;;5066802;28;21020;-79
2021/01/02 11:29:45;;;;;;;17.15;15.10;;;3.10;73.80;;;;;;5072595;28;20438;-79
2021/01/02 11:32:12;;;;;;;15.63;13.23;;;3.20;73.40;;;;;;5072021;28;20354;-79
2021/01/02 11:34:44;;;;;;;16.80;12.63;;;3.20;73.30;;;;;;5075655;28;20474;-81
2021/01/02 11:37:13;;;;;;;18.43;13.57;;;3.20;73.50;;;;;;5075489;28;20478;-80
2021/01/02 11:39:41;;;;;;;15.27;13.27;;;3.20;73.20;;;;;;5089270;28;20445;-82
2021/01/02 11:42:14;;;;;;;15.53;12.60;;;3.20;73.70;;;;;;5095891;28;20459;-82
2021/01/02 11:44:41;;;;;;;17.90;13.30;;;3.00;73.80;;;;;;5082233;28;20535;-82
2021/01/02 11:47:07;;;;;;;18.80;13.90;;;3.10;74.20;;;;;;5093535;28;20455;-82
2021/01/02 11:49:35;;;;;;;16.93;13.80;;;2.90;73.50;;;;;;5086759;28;20450;-82
2021/01/02 11:52:04;;;;;;;16.07;12.07;;;3.10;73.60;;;;;;5085724;28;20671;-83
2021/01/02 11:54:32;;;;;;;14.10;11.60;;;3.00;73.30;;;;;;5082543;28;20449;-83
2021/01/02 11:57:02;;;;;;;15.27;11.80;;;2.70;73.40;;;;;;5082642;28;21221;-82
2021/01/02 11:59:29;;;;;;;19.13;13.27;;;2.70;72.90;;;;;;5083446;28;20454;-82
2021/01/02 12:01:59;;;;;;;15.17;12.50;;;2.80;73.50;;;;;;5082991;28;20449;-83
2021/01/02 12:04:28;;;;;;;18.27;13.00;;;2.90;73.20;;;;;;5075862;28;20451;-81
2021/01/02 12:06:56;;;;;;;16.00;12.00;;;2.80;72.80;;;;;;5087813;28;20454;-83
2021/01/02 12:09:28;;;;;;;17.43;13.30;;;2.80;72.80;;;;;;5082203;28;20483;-82
2021/01/02 12:11:58;;;;;;;18.90;13.77;;;2.90;73.00;;;;;;5080801;28;20545;-83
2021/01/02 12:14:31;;;;;;;16.50;11.90;;;2.80;72.90;;;;;;5091634;28;20454;-84
2021/01/02 12:16:59;;;;;;;14.17;12.17;;;2.90;72.30;;;;;;5093083;28;20493;-83
2021/01/02 12:19:29;;;;;;;16.77;12.10;;;2.60;72.60;;;;;;5078248;28;20534;-83
2021/01/02 12:22:05;;;;;;;17.70;12.43;;;2.70;72.90;;;;;;5080156;28;20493;-83
2021/01/02 12:24:33;;;;;;;14.70;11.80;;;2.70;73.10;;;;;;5084957;28;20448;-83
2021/01/02 12:27:02;;;;;;;16.77;12.87;;;2.60;73.50;;;;;;5089752;28;20456;-79
2021/01/02 12:29:33;;;;;;;14.70;13.10;;;2.60;73.10;;;;;;5087995;28;20448;-80
2021/01/02 12:32:03;;;;;;;17.23;12.37;;;2.50;72.70;;;;;;5092099;28;20444;-81
2021/01/02 12:34:32;;;;;;;14.10;12.67;;;2.40;72.90;;;;;;5087751;28;20457;-80
2021/01/02 12:37:00;;;;;;;17.77;11.20;;;2.40;73.20;;;;;;5090497;28;20538;-80
2021/01/02 12:39:29;;;;;;;16.23;11.67;;;2.20;72.70;;;;;;5096556;28;20505;-79
2021/01/02 12:41:56;;;;;;;16.33;13.37;;;2.20;73.20;;;;;;5081462;28;20456;-80
2021/01/02 12:44:25;;;;;;;16.77;11.77;;;2.30;73.20;;;;;;5083501;28;20458;-78
2021/01/02 12:46:55;;;;;;;19.17;13.00;;;2.10;73.10;;;;;;5084528;28;20522;-80
2021/01/02 12:49:23;;;;;;;15.57;11.97;;;2.30;73.10;;;;;;5089804;28;20494;-81
2021/01/02 12:51:52;;;;;;;17.77;12.40;;;2.00;72.80;;;;;;5083450;28;20517;-78
2021/01/02 12:54:19;;;;;;;14.67;11.47;;;2.10;73.30;;;;;;5081304;28;20461;-82
2021/01/02 12:56:47;;;;;;;20.53;13.37;;;2.00;73.20;;;;;;5076533;28;20464;-80
2021/01/02 12:59:18;;;;;;;17.93;12.93;;;1.90;73.10;;;;;;5088389;28;20439;-80
2021/01/02 13:01:45;;;;;;;18.23;13.53;;;1.80;72.80;;;;;;5076664;28;20463;-81
2021/01/02 13:04:14;;;;;;;17.97;13.87;;;1.90;73.30;;;;;;5096256;28;20452;-78
2021/01/02 13:06:41;;;;;;;17.57;12.83;;;1.90;73.50;;;;;;5105784;28;20459;-79
2021/01/02 13:09:10;;;;;;;23.37;15.63;;;1.70;73.20;;;;;;5086746;28;20451;-81
2021/01/02 13:11:37;;;;;;;19.43;13.73;;;1.80;73.50;;;;;;5085253;28;20470;-80